CheckWX is a tool to help pilots better visualize weather data.  It is not intended as a substitute for an official pre-flight weather briefing.

05:12:48 UTC

CYYB METAR
North Bay Airport
North Bay, Canada
Current

13 mins ago

CYYB 240500Z AUTO 08016KT 9SM BKN095 OVC110 M03/M06 A2984 RMK SLP126
Observed
Feb-24 @ 05:00 UTC
Wind
  • 080° at 16 KTS
Visibility
9 SM
Flight Rules
VFR
Cloud Levels
  • Broken at 9,500' AGL
  • Overcast at 11,000' AGL
Temperature
-3°C / 27°F
Dewpoint
-6°C / 21°F
Humidity
80%
Altimeter
29.84" Hg
Pressure
1012.6 hPa
Previous

1 hour ago

CYYB 240400Z AUTO 08014G19KT 9SM SCT095 BKN150 OVC170 M03/M06 A2990 RMK SLP148
Observed
Feb-24 @ 04:00 UTC
Wind
  • 080° at 14 KTS
  • Gusting to 19 KTS
Visibility
9 SM
Flight Rules
VFR
Cloud Levels
  • Scattered at 9,500' AGL
  • Broken at 15,000' AGL
  • Overcast at 17,000' AGL
Temperature
-3°C / 27°F
Dewpoint
-6°C / 21°F
Humidity
80%
Altimeter
29.9" Hg
Pressure
1014.8 hPa
Previous

2 hours ago

CYYB 240300Z 08019KT 15SM FEW120 SCT180 M03/M06 A2994 RMK AC2AC2 LAST SFTD OBS/NEXT OBS 241200UTC PRESFR SLP160
Observed
Feb-24 @ 03:00 UTC
Wind
  • 080° at 19 KTS
Visibility
15 SM
Flight Rules
VFR
Cloud Levels
  • Few at 12,000' AGL
  • Scattered at 18,000' AGL
Temperature
-3°C / 27°F
Dewpoint
-6°C / 21°F
Humidity
80%
Altimeter
29.94" Hg
Pressure
1016 hPa